Private Wetterstation Grnau im Almtal
www.gruenau.tv

Wetterdaten: aktuell Dienstag, 30.11.2021 18:55
Datum Zeit Temperatur Temp. min Temp. max Luftfeuchte Luftdruck Regen Wind Richtung Richtung Sonne ET UV Solar Taupunkt Windchill Windben
30.11.2021 18:55 4,3 C 4,1 C 4,3 C 84 % 1009,8 hPa 2,2 l/m 12,8 km/h (3 Bft) W-SW 239 0 min 0,025 mm 0,0 UV-I 0 W/m 1,8 C -0,5 C 29,0 km/h (5 Bft)
30.11.2021 17:55 4,4 C 4,4 C 4,4 C 82 % 1009,3 hPa 2,4 l/m 23,2 km/h (4 Bft) W-NW 298 0 min 0,026 mm 0,0 UV-I 0 W/m 1,6 C -5,2 C 53,1 km/h (7 Bft)
30.11.2021 16:55 4,2 C 4,1 C 4,3 C 82 % 1009,3 hPa 2,0 l/m 18,4 km/h (3 Bft) SW 227 0 min 0,025 mm 0,0 UV-I 0 W/m 1,4 C -3,5 C 59,5 km/h (7 Bft)
30.11.2021 15:55 3,8 C 3,7 C 3,8 C 82 % 1009,7 hPa 2,0 l/m 16,7 km/h (3 Bft) W 271 0 min 0,026 mm 0,0 UV-I 0 W/m 1,0 C -3,2 C 49,9 km/h (6 Bft)
30.11.2021 14:55 3,6 C 3,5 C 3,6 C 82 % 1009,7 hPa 1,4 l/m 10,1 km/h (2 Bft) N-NW 338 0 min 0,050 mm 0,0 UV-I 9 W/m 0,8 C 0,5 C 25,7 km/h (4 Bft)
30.11.2021 13:55 3,7 C 3,6 C 3,7 C 79 % 1009,6 hPa 0,2 l/m 14,8 km/h (3 Bft) W-NW 291 0 min 0,051 mm 0,0 UV-I 28 W/m 0,4 C -2,4 C 43,5 km/h (6 Bft)
30.11.2021 12:55 2,3 C 2,3 C 2,4 C 81 % 1010,8 hPa 0,0 l/m 1,8 km/h (1 Bft) W-NW 301 0 min 0,051 mm 0,0 UV-I 90 W/m -0,6 C 2,3 C 6,4 km/h (2 Bft)
30.11.2021 11:55 2,1 C 1,9 C 2,1 C 75 % 1011,8 hPa 0,0 l/m 3,5 km/h (1 Bft) O-SO 113 0 min 0,051 mm 0,0 UV-I 105 W/m -1,9 C 2,1 C 6,4 km/h (2 Bft)
30.11.2021 10:55 1,9 C 1,9 C 1,9 C 73 % 1013,3 hPa 0,0 l/m 3,1 km/h (1 Bft) SW 230 0 min 0,051 mm 0,0 UV-I 97 W/m -2,4 C 1,9 C 8,0 km/h (2 Bft)
30.11.2021 09:55 1,7 C 1,4 C 1,7 C 73 % 1014,4 hPa 0,0 l/m 8,6 km/h (2 Bft) W-SW 240 0 min 0,025 mm 0,0 UV-I 88 W/m -2,6 C -0,4 C 24,1 km/h (4 Bft)
30.11.2021 08:55 0,7 C 0,7 C 0,7 C 80 % 1015,3 hPa 0,2 l/m 5,8 km/h (2 Bft) W 259 0 min 0,025 mm 0,0 UV-I 53 W/m -2,3 C 0,7 C 14,5 km/h (3 Bft)
30.11.2021 07:55 0,8 C 0,8 C 0,9 C 83 % 1015,3 hPa 0,4 l/m 7,5 km/h (2 Bft) N-NO 28 0 min 0,026 mm 0,0 UV-I 9 W/m -1,8 C -0,3 C 22,5 km/h (4 Bft)
30.11.2021 06:55 0,9 C 0,9 C 1,1 C 81 % 1015,2 hPa 0,0 l/m 7,9 km/h (2 Bft) W-NW 284 0 min 0,000 mm 0,0 UV-I 0 W/m -2,0 C -0,6 C 12,9 km/h (3 Bft)
30.11.2021 05:20 0,5 C 0,4 C 0,5 C 83 % 1015,3 hPa 0,2 l/m 3,5 km/h (1 Bft) W-NW 299 0 min 0,025 mm 0,0 UV-I 0 W/m -2,0 C 0,5 C 8,0 km/h (2 Bft)
30.11.2021 04:20 0,9 C 0,9 C 0,9 C 79 % 1014,8 hPa 0,2 l/m 11,6 km/h (2 Bft) NW 325 0 min 0,000 mm 0,0 UV-I 0 W/m -2,3 C -3,7 C 20,9 km/h (4 Bft)
30.11.2021 03:20 -0,5 C -0,6 C -0,5 C 85 % 1014,9 hPa 0,4 l/m 3,6 km/h (1 Bft) W 265 0 min 0,026 mm 0,0 UV-I 0 W/m -2,7 C -0,5 C 8,0 km/h (2 Bft)
30.11.2021 02:20 0,0 C 0,0 C 0,5 C 84 % 1014,5 hPa 0,6 l/m 19,0 km/h (3 Bft) N-NW 334 0 min 0,025 mm 0,0 UV-I 0 W/m -2,4 C -9,2 C 40,2 km/h (6 Bft)
30.11.2021 01:20 0,2 C 0,2 C 0,3 C 83 % 1013,6 hPa 0,2 l/m 7,4 km/h (2 Bft) N 353 0 min 0,000 mm 0,0 UV-I 0 W/m -2,3 C -0,8 C 19,3 km/h (3 Bft)
30.11.2021 00:20 -0,2 C -0,2 C -0,2 C 84 % 1013,5 hPa 0,0 l/m 8,4 km/h (2 Bft) W-SW 257 0 min 0,000 mm 0,0 UV-I 0 W/m -2,6 C -2,2 C 29,0 km/h (5 Bft)
29.11.2021 23:20 0,3 C 0,3 C 0,4 C 79 % 1013,6 hPa 0,0 l/m 7,0 km/h (2 Bft) NW 317 0 min 0,026 mm 0,0 UV-I 0 W/m -2,9 C -0,3 C 16,1 km/h (3 Bft)
29.11.2021 22:20 0,3 C 0,3 C 0,3 C 78 % 1013,3 hPa 0,0 l/m 12,8 km/h (3 Bft) W-NW 294 0 min 0,025 mm 0,0 UV-I 0 W/m -3,1 C -5,2 C 29,0 km/h (5 Bft)
29.11.2021 21:20 0,4 C 0,4 C 0,4 C 76 % 1012,7 hPa 0,2 l/m 8,9 km/h (2 Bft) W-SW 243 0 min 0,025 mm 0,0 UV-I 0 W/m -3,3 C -2,1 C 17,7 km/h (3 Bft)
29.11.2021 20:20 0,4 C 0,4 C 0,4 C 78 % 1012,3 hPa 0,2 l/m 15,2 km/h (3 Bft) N-NW 334 0 min 0,026 mm 0,0 UV-I 0 W/m -3,0 C -6,6 C 27,4 km/h (4 Bft)
29.11.2021 19:20 0,3 C 0,2 C 0,3 C 81 % 1011,3 hPa 0,2 l/m 9,3 km/h (2 Bft) NW 305 0 min 0,025 mm 0,0 UV-I 0 W/m -2,6 C -2,5 C 19,3 km/h (3 Bft)
29.11.2021 19:00 0,2 C 0,1 C 0,2 C 81 % 1011,0 hPa 0,0 l/m 2,4 km/h (1 Bft) N-NW 348 0 min 0,025 mm 0,0 UV-I 0 W/m -2,7 C 0,2 C 6,4 km/h (2 Bft)
_ Min-Zeit 03:20 03:20 03:20 10:10 16:05 - 09:45 - - - - - - 21:20 02:20 09:45
Minimum _ -0,6 C -0,6 C -0,5 C 70 % 1009,2 hPa - 0,0 km/h (0 Bft) - - - - - - -3,3 C -9,2 C 1,6 km/h (1 Bft)
_ Max-Zeit 18:40 17:55 18:40 03:05 08:20 16:10 16:40 - - 19:00 10:00 11:10 11:10 18:55 15:45 16:40
Maximum _ 4,5 C 4,4 C 4,5 C 86 % 1015,6 hPa 0,4 l/m 26,0 km/h
N-NO (4 Bft)
- - 0 min 0,051 mm 0,5 UV-I 165 W/m 1,8 C 3,5 C 61,2 km/h
NW (7 Bft)
Durchschnitt _ 1,4 C 1,3 C 1,5 C 80 % 1012,6 hPa #13,2 l/m 9,7 km/h (2 Bft) W-NW - #0 min. #0,508 mm 0,5 UV-I 62 W/m -1,6 C -1,7 C 23,2 km/h (4 Bft)
Rauscher Max - www.gruenau.tv